Time;durP1;ratioP1;P1;durP2;ratioP2;P2;SDS_P1;SDS_P2;PMS_P1;PMS_P2;Temp;Humidity;BMP_temperature;BMP_pressure;BME280_temperature;BME280_humidity;BME280_pressure;Samples;Min_cycle;Max_cycle;Signal;HPM_P1;HPM_P2
2021/07/22 00:00:47;;;;;;;17.00;11.05;;;;;;;24.69;76.50;100129.12;1874426;76;21046;-66
2021/07/22 00:03:16;;;;;;;18.70;11.63;;;;;;;24.65;76.51;100125.92;1874303;76;21038;-66
2021/07/22 00:05:44;;;;;;;20.05;11.63;;;;;;;24.63;76.58;100130.62;1874331;76;21148;-66
2021/07/22 00:08:13;;;;;;;19.27;12.47;;;;;;;24.60;76.68;100138.19;1874333;76;21067;-66
2021/07/22 00:10:42;;;;;;;23.85;15.60;;;;;;;24.59;76.95;100148.13;1874356;76;21183;-67
2021/07/22 00:13:11;;;;;;;34.88;16.97;;;;;;;24.60;77.32;100155.69;1874542;76;21128;-67
2021/07/22 00:15:40;;;;;;;28.30;16.73;;;;;;;24.63;77.57;100159.41;1874341;76;21074;-67
2021/07/22 00:18:09;;;;;;;23.47;15.40;;;;;;;24.65;77.69;100154.70;1874342;76;21168;-66
2021/07/22 00:20:38;;;;;;;20.62;13.43;;;;;;;24.65;77.62;100140.72;1874352;76;21038;-67
2021/07/22 00:23:07;;;;;;;20.75;13.05;;;;;;;24.66;77.47;100147.80;1874225;76;21111;-67
2021/07/22 00:25:35;;;;;;;22.45;12.45;;;;;;;24.65;77.32;100147.97;1874262;76;21058;-67
2021/07/22 00:28:04;;;;;;;21.20;13.13;;;;;;;24.62;77.26;100146.45;1874414;75;21160;-67
2021/07/22 00:30:33;;;;;;;20.17;11.90;;;;;;;24.61;77.12;100145.27;1874416;76;21023;-67
2021/07/22 00:33:02;;;;;;;26.48;12.70;;;;;;;24.60;77.06;100147.09;1874281;76;21110;-66
2021/07/22 00:35:31;;;;;;;16.97;9.85;;;;;;;24.59;77.00;100153.51;1874235;76;21030;-68
2021/07/22 00:38:00;;;;;;;15.38;10.43;;;;;;;24.59;76.90;100158.89;1874336;76;21112;-67
2021/07/22 00:40:28;;;;;;;13.48;9.28;;;;;;;24.60;76.71;100156.52;1874328;76;21058;-67
2021/07/22 00:42:59;;;;;;;15.68;9.45;;;;;;;24.61;76.62;100156.88;1874298;76;21058;-67
2021/07/22 00:45:29;;;;;;;12.68;8.83;;;;;;;24.61;76.43;100149.31;1874361;76;21036;-66
2021/07/22 00:48:01;;;;;;;13.45;7.30;;;;;;;24.62;76.21;100149.15;1874273;76;21058;-67
2021/07/22 00:50:34;;;;;;;13.77;8.10;;;;;;;24.62;76.01;100154.53;1874602;76;21104;-67
2021/07/22 00:53:03;;;;;;;13.62;8.73;;;;;;;24.62;75.81;100158.56;1874505;76;21425;-67
2021/07/22 00:55:32;;;;;;;15.35;9.65;;;;;;;24.64;75.77;100160.59;1874497;76;21125;-66
2021/07/22 00:58:01;;;;;;;16.73;9.63;;;;;;;24.65;75.75;100162.25;1874586;76;21456;-66
2021/07/22 01:00:31;;;;;;;15.45;9.18;;;;;;;24.65;75.73;100160.91;1874103;76;21074;-66
2021/07/22 01:03:00;;;;;;;13.83;9.30;;;;;;;24.65;75.67;100154.70;1874522;76;21556;-66
2021/07/22 01:05:29;;;;;;;20.55;10.08;;;;;;;24.65;75.61;100156.04;1874539;76;21151;-66
2021/07/22 01:07:59;;;;;;;15.03;10.82;;;;;;;24.61;75.66;100157.38;1842906;76;21132;-66
2021/07/22 01:10:28;;;;;;;15.05;9.33;;;;;;;24.57;75.61;100156.88;1874335;76;21070;-65
2021/07/22 01:12:58;;;;;;;16.45;9.53;;;;;;;24.53;75.59;100153.31;1874227;76;21074;-66
2021/07/22 01:15:29;;;;;;;17.55;9.38;;;;;;;24.46;75.65;100146.39;1874310;76;21085;-65
2021/07/22 01:17:58;;;;;;;14.45;9.90;;;;;;;24.39;75.85;100145.36;1874445;76;21034;-66
2021/07/22 01:20:29;;;;;;;17.50;10.93;;;;;;;24.34;75.84;100143.66;1874257;76;21074;-66
2021/07/22 01:22:59;;;;;;;22.67;11.37;;;;;;;24.27;75.95;100147.02;1874491;76;21057;-65
2021/07/22 01:25:30;;;;;;;21.33;12.30;;;;;;;24.21;76.32;100148.98;1872768;76;21515;-66
2021/07/22 01:27:59;;;;;;;19.32;11.60;;;;;;;24.14;76.67;100152.50;1874408;75;21504;-67
2021/07/22 01:30:29;;;;;;;17.73;11.80;;;;;;;24.07;76.93;100151.81;1848552;76;21074;-66
2021/07/22 01:32:58;;;;;;;15.63;10.20;;;;;;;24.02;77.33;100152.79;1877672;76;21429;-66
2021/07/22 01:35:27;;;;;;;19.67;9.50;;;;;;;23.99;77.29;100157.65;1877589;76;21547;-65
2021/07/22 01:37:56;;;;;;;14.73;9.53;;;;;;;23.95;77.14;100152.26;1848484;76;21042;-66
2021/07/22 01:40:25;;;;;;;15.00;7.85;;;;;;;23.91;77.06;100153.08;1877627;76;21198;-66
2021/07/22 01:42:55;;;;;;;13.72;7.75;;;;;;;23.89;76.85;100159.13;1877894;76;21472;-66
2021/07/22 01:45:24;;;;;;;13.22;7.25;;;;;;;23.88;76.57;100156.95;1877770;76;21038;-66
2021/07/22 01:47:55;;;;;;;8.70;6.05;;;;;;;23.87;76.35;100160.62;1877650;76;21022;-66
2021/07/22 01:50:23;;;;;;;9.50;5.50;;;;;;;23.87;76.06;100160.62;1877670;76;21057;-65
2021/07/22 01:52:54;;;;;;;11.40;6.15;;;;;;;23.86;75.76;100162.95;1877088;76;21598;-66
2021/07/22 01:55:23;;;;;;;9.88;4.95;;;;;;;23.86;75.57;100161.61;1877857;76;21234;-65
2021/07/22 01:57:56;;;;;;;8.23;4.60;;;;;;;23.84;75.39;100156.90;1876557;76;21141;-64
2021/07/22 02:00:24;;;;;;;9.65;5.05;;;;;;;23.82;75.22;100159.42;1877681;76;21038;-64
2021/07/22 02:02:55;;;;;;;8.43;5.03;;;;;;;23.81;75.13;100157.72;1877210;76;21073;-65
2021/07/22 02:05:25;;;;;;;15.68;6.25;;;;;;;23.81;75.04;100170.69;1877086;76;21073;-65
2021/07/22 02:07:54;;;;;;;9.93;5.60;;;;;;;23.80;75.12;100167.64;1877646;76;21062;-65
2021/07/22 02:10:23;;;;;;;10.65;5.90;;;;;;;23.82;75.13;100164.28;1877919;76;21512;-65
2021/07/22 02:12:52;;;;;;;8.40;4.95;;;;;;;23.83;75.06;100159.74;1877993;76;21527;-65
2021/07/22 02:15:22;;;;;;;8.75;5.65;;;;;;;23.82;74.93;100154.05;1876851;76;21074;-65
2021/07/22 02:17:52;;;;;;;10.78;5.53;;;;;;;23.79;74.89;100146.25;1877534;76;21070;-65
2021/07/22 02:20:21;;;;;;;10.25;5.22;;;;;;;23.77;74.86;100150.45;1877813;76;21466;-64
2021/07/22 02:22:52;;;;;;;12.75;6.22;;;;;;;23.74;74.89;100154.81;1877604;76;21082;-64
2021/07/22 02:25:22;;;;;;;12.80;6.92;;;;;;;23.70;75.20;100156.14;1871649;76;21556;-64
2021/07/22 02:27:53;;;;;;;9.65;6.85;;;;;;;23.69;75.23;100153.94;1876458;76;21156;-65
2021/07/22 02:30:22;;;;;;;13.65;6.87;;;;;;;23.70;75.34;100158.83;1875248;76;21080;-65
2021/07/22 02:32:52;;;;;;;11.63;6.67;;;;;;;23.72;75.28;100158.17;1874252;76;21611;-64
2021/07/22 02:35:21;;;;;;;14.58;7.22;;;;;;;23.74;75.22;100160.67;1874484;76;21489;-64
2021/07/22 02:38:07;;;;;;;12.53;7.03;;;;;;;23.74;75.17;100157.50;1874252;76;21086;-65
2021/07/22 02:40:36;;;;;;;13.45;6.20;;;;;;;23.75;75.04;100159.17;1874376;76;21545;-66
2021/07/22 02:43:06;;;;;;;11.15;5.87;;;;;;;23.78;74.89;100158.86;1874358;76;21625;-66
2021/07/22 02:45:39;;;;;;;8.35;5.37;;;;;;;23.83;74.75;100161.95;1874333;76;21062;-65
2021/07/22 02:48:09;;;;;;;8.60;5.17;;;;;;;23.92;74.49;100159.29;1842749;76;21042;-65
2021/07/22 02:50:38;;;;;;;8.73;5.70;;;;;;;23.99;74.14;100158.48;1874333;76;21042;-65
2021/07/22 02:53:09;;;;;;;11.48;6.28;;;;;;;24.05;73.94;100159.68;1874109;76;21038;-66
2021/07/22 02:55:39;;;;;;;12.78;6.53;;;;;;;24.09;73.85;100153.83;1871742;76;21117;-65
2021/07/22 02:58:08;;;;;;;13.32;5.12;;;;;;;24.15;73.72;100157.72;1874288;76;21167;-66
2021/07/22 03:00:38;;;;;;;8.10;4.37;;;;;;;24.23;73.60;100157.73;1873102;76;21039;-65
2021/07/22 03:03:08;;;;;;;9.80;4.17;;;;;;;24.32;73.45;100163.99;1874278;76;21603;-65
2021/07/22 03:05:37;;;;;;;9.73;4.53;;;;;;;24.43;73.15;100161.51;1874428;76;21066;-66
2021/07/22 03:08:06;;;;;;;12.25;4.80;;;;;;;24.48;72.51;100156.48;1874443;76;21446;-65
2021/07/22 03:10:35;;;;;;;13.28;5.42;;;;;;;24.57;72.18;100164.11;1874282;76;21132;-65
2021/07/22 03:13:04;;;;;;;10.23;4.78;;;;;;;24.66;72.02;100169.34;1874271;76;21200;-66
2021/07/22 03:15:34;;;;;;;8.98;4.42;;;;;;;24.75;71.92;100166.64;1874262;76;21639;-66
2021/07/22 03:18:05;;;;;;;7.25;3.90;;;;;;;24.77;71.62;100175.39;1873766;76;21105;-66
2021/07/22 03:20:34;;;;;;;16.17;5.90;;;;;;;24.75;71.42;100172.03;1873655;76;21133;-66
2021/07/22 03:23:03;;;;;;;12.05;4.60;;;;;;;24.71;71.12;100173.38;1874339;76;21058;-66
2021/07/22 03:25:33;;;;;;;8.65;5.08;;;;;;;24.71;71.09;100176.90;1872709;76;21096;-66
2021/07/22 03:28:19;;;;;;;9.03;5.65;;;;;;;24.64;71.10;100178.09;1873026;76;21042;-65
2021/07/22 03:30:49;;;;;;;9.85;5.55;;;;;;;24.58;71.24;100180.06;1873170;75;21171;-65
2021/07/22 03:33:36;;;;;;;12.65;5.42;;;;;;;24.50;71.46;100177.34;1874256;76;21595;-66
2021/07/22 03:36:06;;;;;;;10.93;5.00;;;;;;;24.42;71.60;100181.34;1873083;76;21069;-68
2021/07/22 03:38:37;;;;;;;10.40;5.30;;;;;;;24.39;71.61;100181.68;1874122;76;21127;-68
2021/07/22 03:41:22;;;;;;;11.45;5.55;;;;;;;24.35;71.72;100183.86;1832430;76;21065;-68
2021/07/22 03:43:50;;;;;;;13.32;6.70;;;;;;;24.31;71.94;100184.33;1874294;76;21136;-68
2021/07/22 03:46:18;;;;;;;12.73;7.83;;;;;;;24.26;72.17;100187.02;1874304;76;21046;-68
2021/07/22 03:48:47;;;;;;;23.40;12.47;;;;;;;24.24;72.35;100187.67;1874342;76;21575;-68
2021/07/22 03:51:17;;;;;;;18.25;10.38;;;;;;;24.23;72.46;100187.33;1874198;76;21058;-68
2021/07/22 03:53:46;;;;;;;19.57;10.78;;;;;;;24.26;72.53;100184.32;1874145;76;21019;-70
2021/07/22 03:56:15;;;;;;;20.52;7.65;;;;;;;24.31;72.42;100187.02;1874334;76;21078;-69
2021/07/22 03:58:45;;;;;;;14.70;9.68;;;;;;;24.34;72.35;100186.19;1871388;76;21077;-65
2021/07/22 04:01:28;;;;;;;14.78;9.00;;;;;;;24.36;72.34;100186.03;1873632;76;21081;-65
2021/07/22 04:03:58;;;;;;;33.88;19.23;;;;;;;24.37;72.38;100193.11;1874331;76;21121;-66
2021/07/22 04:06:28;;;;;;;16.10;9.45;;;;;;;24.40;72.52;100194.11;1874310;76;21481;-66
2021/07/22 04:08:56;;;;;;;11.18;6.20;;;;;;;24.43;72.45;100187.91;1874339;76;21115;-65
2021/07/22 04:11:40;;;;;;;28.52;11.93;;;;;;;24.44;72.29;100187.42;1870920;76;21062;-63
2021/07/22 04:14:27;;;;;;;9.85;6.15;;;;;;;24.52;72.07;100185.25;1874139;76;21050;-65
2021/07/22 04:17:16;;;;;;;12.33;5.92;;;;;;;24.60;71.91;100180.74;1849554;76;21085;-64
2021/07/22 04:20:03;;;;;;;13.15;4.92;;;;;;;24.69;71.74;100183.47;1871743;76;21434;-65
2021/07/22 04:22:33;;;;;;;10.78;5.55;;;;;;;24.87;71.46;100178.78;1869939;76;21112;-66
2021/07/22 04:25:04;;;;;;;10.20;4.65;;;;;;;25.08;71.00;100176.11;1870053;76;21104;-66
2021/07/22 04:27:34;;;;;;;8.70;3.70;;;;;;;25.24;70.61;100169.41;1870412;76;21070;-67
2021/07/22 04:30:07;;;;;;;7.42;3.37;;;;;;;25.65;69.74;100171.20;1872661;76;21069;-64
2021/07/22 04:32:39;;;;;;;7.10;3.45;;;;;;;26.05;68.56;100155.95;1869356;76;21554;-65
2021/07/22 04:35:21;;;;;;;9.68;3.17;;;;;;;26.37;67.39;100158.98;1871959;76;21134;-65
2021/07/22 04:37:51;;;;;;;9.55;3.65;;;;;;;26.56;65.56;100159.89;1866843;76;21035;-65
2021/07/22 04:40:25;;;;;;;6.80;2.92;;;;;;;26.64;65.08;100150.93;1837099;76;21061;-66
2021/07/22 04:43:02;;;;;;;7.97;3.05;;;;;;;26.85;64.58;100152.96;1874394;76;21058;-67
2021/07/22 04:45:42;;;;;;;5.53;3.55;;;;;;;27.06;63.51;100143.37;1780668;80;21095;-67
2021/07/22 04:48:15;;;;;;;7.53;3.15;;;;;;;27.25;63.49;100150.95;1798184;76;21132;-66
2021/07/22 04:50:54;;;;;;;13.68;3.67;;;;;;;27.44;62.99;100154.19;1869416;76;21175;-66
2021/07/22 04:53:28;;;;;;;7.60;2.87;;;;;;;27.69;62.81;100156.95;1871958;76;21144;-66
2021/07/22 04:55:58;;;;;;;5.35;2.30;;;;;;;28.08;62.07;100151.79;1872721;76;21074;-65
2021/07/22 04:58:27;;;;;;;4.90;2.70;;;;;;;28.32;60.49;100152.50;1874082;76;21524;-67
2021/07/22 05:00:58;;;;;;;5.30;2.85;;;;;;;28.53;59.66;100153.07;1874114;76;21077;-66
2021/07/22 05:03:27;;;;;;;4.65;2.80;;;;;;;28.86;59.74;100162.06;1874271;76;21077;-66
2021/07/22 05:05:55;;;;;;;8.03;3.10;;;;;;;29.20;58.35;100160.53;1874221;76;21042;-66
2021/07/22 05:08:29;;;;;;;6.50;3.05;;;;;;;29.33;57.17;100159.80;1873674;76;21065;-66
2021/07/22 05:11:05;;;;;;;5.20;2.62;;;;;;;29.31;56.08;100157.28;1841986;76;21105;-66
2021/07/22 05:13:57;;;;;;;13.30;2.98;;;;;;;29.46;56.83;100162.61;1872127;76;21030;-67
2021/07/22 05:16:37;;;;;;;5.92;2.05;;;;;;;29.71;56.10;100152.64;1830693;76;21124;-67
2021/07/22 05:19:17;;;;;;;7.62;2.45;;;;;;;29.80;54.21;100158.25;1811370;78;21087;-68
2021/07/22 05:22:09;;;;;;;7.47;2.35;;;;;;;30.08;53.83;100160.06;1874183;76;21062;-68
2021/07/22 05:24:35;;;;;;;;;;;;;;;30.36;53.24;100155.42;1875482;76;21073;-68
2021/07/22 05:27:22;;;;;;;10.93;2.83;;;;;;;30.65;53.70;100152.03;1874180;76;20147;-66
2021/07/22 05:30:05;;;;;;;8.03;3.20;;;;;;;30.83;52.92;100155.52;1871396;76;21105;-67
2021/07/22 05:32:48;;;;;;;5.17;2.52;;;;;;;30.74;51.27;100154.87;1825609;77;21100;-66
2021/07/22 05:35:19;;;;;;;5.70;2.85;;;;;;;30.81;51.57;100152.17;1846047;78;21512;-64
2021/07/22 05:38:01;;;;;;;9.25;2.92;;;;;;;31.02;50.84;100142.18;1846074;78;21676;-64
2021/07/22 05:40:26;;;;;;;5.90;2.77;;;;;;;31.12;50.21;100140.72;1845297;78;21128;-64
2021/07/22 05:42:55;;;;;;;7.90;3.70;;;;;;;31.12;50.27;100138.00;1846305;78;21117;-64
2021/07/22 05:45:26;;;;;;;5.55;2.70;;;;;;;31.26;50.43;100137.45;1846296;78;21062;-65
2021/07/22 05:47:55;;;;;;;6.55;2.77;;;;;;;31.47;49.78;100141.87;1846314;78;21555;-64
2021/07/22 05:50:24;;;;;;;6.75;2.47;;;;;;;31.80;49.89;100134.16;1846249;78;21552;-65
2021/07/22 05:52:53;;;;;;;8.95;2.77;;;;;;;31.91;48.76;100126.69;1846355;78;21125;-64
2021/07/22 05:55:21;;;;;;;7.47;2.87;;;;;;;32.27;48.83;100126.65;1846547;78;21022;-64
2021/07/22 05:57:50;;;;;;;7.60;2.60;;;;;;;32.65;47.07;100120.39;1846321;78;21148;-64
2021/07/22 06:00:19;;;;;;;5.12;2.40;;;;;;;32.59;46.04;100126.73;1846410;78;21058;-66
2021/07/22 06:02:48;;;;;;;8.05;3.00;;;;;;;32.75;46.18;100121.80;1846420;78;21112;-64
2021/07/22 06:05:19;;;;;;;4.58;2.50;;;;;;;32.89;45.18;100125.56;1846274;78;21183;-65
2021/07/22 06:07:48;;;;;;;5.40;2.22;;;;;;;32.99;44.84;100125.59;1846410;78;21138;-66
2021/07/22 06:10:17;;;;;;;3.50;2.02;;;;;;;33.15;44.16;100125.59;1846298;78;21136;-65
2021/07/22 06:12:46;;;;;;;4.37;2.45;;;;;;;33.44;42.81;100118.07;1846313;78;21144;-65
2021/07/22 06:15:15;;;;;;;5.62;2.30;;;;;;;32.98;43.49;100125.27;1846308;78;21105;-65
2021/07/22 06:17:44;;;;;;;7.47;3.15;;;;;;;32.82;44.07;100122.58;1846156;78;21635;-65
2021/07/22 06:20:13;;;;;;;8.65;2.80;;;;;;;32.77;42.31;100122.41;1846330;78;21050;-65
2021/07/22 06:22:46;;;;;;;4.00;2.95;;;;;;;32.57;43.04;100111.06;1846279;78;21050;-65
2021/07/22 06:25:15;;;;;;;6.58;2.52;;;;;;;32.45;44.19;100112.84;1845401;78;21101;-65
2021/07/22 06:27:44;;;;;;;5.42;2.70;;;;;;;32.83;44.34;100118.78;1846323;78;21104;-65
2021/07/22 06:30:13;;;;;;;7.42;2.92;;;;;;;33.32;43.91;100108.95;1846166;78;21477;-66
2021/07/22 06:32:42;;;;;;;9.88;2.55;;;;;;;33.47;41.61;100099.03;1860355;76;21132;-65
2021/07/22 06:35:11;;;;;;;5.60;2.80;;;;;;;33.51;42.03;100110.34;1876678;75;21070;-65
2021/07/22 06:37:45;;;;;;;5.22;2.92;;;;;;;33.00;42.78;100103.55;1877619;76;21132;-65
2021/07/22 06:40:16;;;;;;;7.85;2.62;;;;;;;32.51;43.21;100098.33;1877791;76;21190;-65
2021/07/22 06:42:45;;;;;;;7.22;3.35;;;;;;;32.20;44.34;100099.97;1877444;76;21062;-66
2021/07/22 06:45:14;;;;;;;8.13;3.15;;;;;;;32.65;44.07;100097.22;1877514;76;21119;-65
2021/07/22 06:47:42;;;;;;;7.03;3.25;;;;;;;33.07;42.81;100094.79;1877507;76;21478;-65
2021/07/22 06:50:13;;;;;;;11.97;3.50;;;;;;;33.65;42.19;100088.69;1877494;76;21058;-65
2021/07/22 06:52:41;;;;;;;7.60;3.80;;;;;;;33.62;40.76;100089.11;1877515;76;21042;-66
2021/07/22 06:55:11;;;;;;;6.12;4.00;;;;;;;33.95;40.32;100074.25;1877431;76;21172;-66
2021/07/22 06:57:40;;;;;;;9.38;4.15;;;;;;;33.97;40.29;100088.50;1877566;76;21116;-65
2021/07/22 07:00:09;;;;;;;9.05;4.17;;;;;;;33.62;40.29;100087.74;1877493;76;21065;-65
2021/07/22 07:02:38;;;;;;;6.33;3.80;;;;;;;33.57;40.97;100084.86;1877475;76;21035;-66
2021/07/22 07:05:07;;;;;;;5.83;3.70;;;;;;;33.95;40.21;100083.81;1877518;76;21034;-66
2021/07/22 07:07:36;;;;;;;5.50;4.03;;;;;;;33.80;39.72;100080.94;1877371;76;21085;-66
2021/07/22 07:10:06;;;;;;;6.87;3.65;;;;;;;33.79;40.71;100076.56;1877462;76;21050;-66
2021/07/22 07:12:34;;;;;;;15.93;6.90;;;;;;;34.09;40.69;100070.83;1877608;76;21038;-65
2021/07/22 07:15:03;;;;;;;8.50;4.33;;;;;;;34.30;39.41;100071.69;1877493;76;21070;-65
2021/07/22 07:17:32;;;;;;;6.97;4.05;;;;;;;34.52;39.29;100062.96;1877514;76;21022;-66
2021/07/22 07:20:01;;;;;;;6.60;4.28;;;;;;;34.47;38.79;100069.11;1877411;76;21050;-66
2021/07/22 07:22:30;;;;;;;8.15;4.22;;;;;;;34.39;39.07;100064.00;1877447;76;21042;-66
2021/07/22 07:24:58;;;;;;;8.50;4.10;;;;;;;34.39;39.07;100064.00;1877443;76;21496;-65
2021/07/22 07:27:27;;;;;;;4.92;3.65;;;;;;;34.60;39.15;100071.66;1877484;76;21070;-66
2021/07/22 07:29:56;;;;;;;4.58;3.45;;;;;;;34.75;38.29;100067.66;1877690;76;21175;-66
2021/07/22 07:32:24;;;;;;;8.28;4.20;;;;;;;34.85;38.13;100067.91;1877555;76;21046;-65
2021/07/22 07:34:53;;;;;;;8.05;4.17;;;;;;;35.22;37.99;100064.97;1876216;75;21211;-66
2021/07/22 07:37:22;;;;;;;9.78;3.80;;;;;;;35.59;37.51;100072.89;1874250;76;21046;-66
2021/07/22 07:39:51;;;;;;;9.38;3.72;;;;;;;35.59;36.40;100053.73;1874341;76;21096;-65
2021/07/22 07:42:19;;;;;;;17.00;5.25;;;;;;;35.59;36.40;100053.73;1874230;76;21531;-65
2021/07/22 07:44:48;;;;;;;9.75;4.80;;;;;;;35.02;36.70;100052.17;1874234;76;21086;-65
2021/07/22 07:47:17;;;;;;;8.15;3.80;;;;;;;34.93;38.17;100061.25;1874143;76;21152;-65
2021/07/22 07:49:46;;;;;;;7.28;3.92;;;;;;;34.93;38.17;100061.25;1874266;76;21130;-65
2021/07/22 07:52:15;;;;;;;6.17;3.83;;;;;;;34.51;39.29;100060.77;1874439;76;21132;-65
2021/07/22 07:54:43;;;;;;;8.20;4.10;;;;;;;34.51;39.29;100060.77;1874493;76;21458;-65
2021/07/22 07:57:12;;;;;;;8.48;4.22;;;;;;;35.03;37.80;100064.76;1874218;76;21144;-65
2021/07/22 07:59:42;;;;;;;4.12;3.50;;;;;;;35.24;37.41;100053.25;1874160;76;21070;-66
2021/07/22 08:22:05;;;;;;;8.48;4.47;;;;;;;34.55;38.09;100074.27;1978425;72;28024;-61
2021/07/22 08:24:35;;;;;;;5.92;3.47;;;;;;;34.86;37.45;100079.17;1953686;73;21067;-61
2021/07/22 08:27:05;;;;;;;7.92;4.15;;;;;;;34.92;36.78;100076.02;1953539;73;21055;-63
2021/07/22 08:29:35;;;;;;;8.78;4.65;;;;;;;34.92;36.78;100076.02;1953647;73;21446;-62
2021/07/22 08:32:05;;;;;;;7.80;3.95;;;;;;;34.79;36.92;100068.33;1953616;73;21011;-61
2021/07/22 08:34:33;;;;;;;7.15;4.08;;;;;;;34.77;37.57;100073.20;1953690;73;21003;-61
2021/07/22 08:37:10;;;;;;;9.03;3.95;;;;;;;35.00;37.17;100067.44;1953669;73;21062;-62
2021/07/22 08:39:41;;;;;;;7.78;3.98;;;;;;;35.28;37.31;100077.69;1953596;73;21055;-62
2021/07/22 08:42:11;;;;;;;8.55;3.90;;;;;;;34.79;36.62;100074.34;1952947;73;21036;-62
2021/07/22 08:44:42;;;;;;;6.10;3.55;;;;;;;34.16;37.64;100075.64;1953789;73;21027;-61
2021/07/22 08:47:12;;;;;;;10.80;4.62;;;;;;;33.35;38.86;100083.95;1953816;73;21015;-61
2021/07/22 08:49:41;;;;;;;6.83;4.03;;;;;;;33.02;39.55;100075.53;1953675;73;21023;-61
2021/07/22 08:52:12;;;;;;;10.68;3.98;;;;;;;33.54;38.95;100075.78;1953554;73;21100;-61
2021/07/22 08:54:41;;;;;;;6.28;4.47;;;;;;;34.07;37.98;100061.49;1953702;73;21003;-64
2021/07/22 08:57:12;;;;;;;10.60;4.05;;;;;;;33.66;38.06;100076.70;1953677;73;21077;-61
2021/07/22 08:59:40;;;;;;;6.15;3.33;;;;;;;32.92;39.39;100077.91;1953273;73;21473;-61
2021/07/22 09:02:12;;;;;;;12.07;4.80;;;;;;;32.49;40.46;100082.20;1953680;73;21020;-62
2021/07/22 09:04:56;;;;;;;6.47;4.00;;;;;;;32.01;42.12;100072.30;1953664;73;21105;-64
2021/07/22 09:07:27;;;;;;;7.40;3.85;;;;;;;31.65;43.33;100077.27;1953658;73;21023;-61
2021/07/22 09:10:13;;;;;;;9.48;4.00;;;;;;;31.94;42.62;100077.23;1953659;73;21129;-61
2021/07/22 09:12:44;;;;;;;7.05;4.70;;;;;;;31.90;42.05;100080.09;1953691;73;21004;-62
2021/07/22 09:15:21;;;;;;;5.60;4.03;;;;;;;31.58;42.40;100070.16;1953674;73;21110;-62
2021/07/22 09:17:50;;;;;;;8.48;4.08;;;;;;;31.29;43.44;100076.39;1953761;73;21007;-62
2021/07/22 09:20:37;;;;;;;10.28;4.00;;;;;;;31.18;43.72;100080.05;1953669;73;21039;-61
2021/07/22 09:23:06;;;;;;;6.47;3.83;;;;;;;31.06;43.95;100066.80;1962248;73;21082;-62
2021/07/22 09:25:46;;;;;;;6.95;3.50;;;;;;;30.92;44.29;100068.68;1962158;73;21457;-62
2021/07/22 09:28:23;;;;;;;10.55;3.45;;;;;;;31.16;43.41;100065.01;1962375;73;21046;-62
2021/07/22 09:31:01;;;;;;;6.50;3.90;;;;;;;31.76;41.75;100066.22;1962371;73;21426;-61
2021/07/22 09:33:38;;;;;;;6.00;3.45;;;;;;;32.59;39.76;100069.50;1962270;73;21116;-61
2021/07/22 09:36:22;;;;;;;11.30;4.20;;;;;;;32.96;38.87;100055.13;1962198;73;21152;-61
2021/07/22 09:38:51;;;;;;;9.73;3.40;;;;;;;32.55;39.63;100068.22;1961346;73;21062;-61
2021/07/22 09:41:23;;;;;;;6.97;3.40;;;;;;;32.45;39.43;100060.54;1962281;73;21108;-61
2021/07/22 09:43:52;;;;;;;9.88;4.35;;;;;;;32.45;39.81;100065.16;1962305;73;21019;-61
2021/07/22 09:46:24;;;;;;;8.65;3.47;;;;;;;32.61;39.54;100070.11;1962178;73;21539;-62
2021/07/22 09:49:12;;;;;;;5.58;2.92;;;;;;;32.65;40.16;100069.14;1958509;73;21007;-62
2021/07/22 09:51:40;;;;;;;7.08;3.67;;;;;;;32.83;40.08;100062.89;1962231;73;21051;-62
2021/07/22 09:54:12;;;;;;;5.65;3.50;;;;;;;33.08;39.04;100052.80;1962504;73;21027;-62
2021/07/22 09:56:42;;;;;;;6.83;3.45;;;;;;;33.50;38.95;100060.92;1962197;73;21089;-63
2021/07/22 09:59:11;;;;;;;9.25;3.98;;;;;;;33.44;38.04;100058.04;1962085;73;21070;-61
2021/07/22 10:01:48;;;;;;;6.75;3.27;;;;;;;33.11;38.57;100058.36;1962261;73;21027;-62
2021/07/22 10:04:20;;;;;;;4.40;3.25;;;;;;;32.68;39.30;100061.36;1962412;73;21109;-62
2021/07/22 10:06:50;;;;;;;6.63;3.80;;;;;;;33.26;38.62;100046.58;1962738;73;21549;-61
2021/07/22 10:09:21;;;;;;;5.37;3.22;;;;;;;33.26;38.62;100046.58;1962238;73;21571;-61
2021/07/22 10:11:50;;;;;;;5.83;3.25;;;;;;;33.77;38.99;100058.21;1962359;73;21097;-61
2021/07/22 10:14:21;;;;;;;13.70;3.02;;;;;;;34.13;37.85;100061.92;1962304;73;21105;-61
2021/07/22 10:16:51;;;;;;;8.38;3.95;;;;;;;34.15;37.92;100056.23;1962293;73;21034;-61
2021/07/22 10:19:21;;;;;;;8.13;3.30;;;;;;;34.16;37.56;100049.17;1962370;73;21019;-61
2021/07/22 10:21:50;;;;;;;3.67;2.52;;;;;;;33.83;36.67;100049.09;1962271;73;21058;-62
2021/07/22 10:24:21;;;;;;;5.62;3.40;;;;;;;33.58;38.42;100053.78;1962893;73;21484;-62
2021/07/22 10:26:51;;;;;;;8.75;4.00;;;;;;;33.88;38.12;100047.56;1963017;73;21003;-61
2021/07/22 10:29:20;;;;;;;7.08;4.03;;;;;;;34.07;36.55;100038.27;1963020;73;21100;-61
2021/07/22 10:31:51;;;;;;;5.00;2.95;;;;;;;33.97;37.01;100044.27;1962902;73;21575;-61
2021/07/22 10:34:21;;;;;;;5.92;3.00;;;;;;;33.99;37.30;100053.60;1962858;73;21100;-63
2021/07/22 10:36:51;;;;;;;7.60;3.42;;;;;;;34.04;37.39;100046.92;1963045;73;21030;-62
2021/07/22 10:39:23;;;;;;;10.93;3.87;;;;;;;33.96;36.87;100052.18;1962923;73;21108;-62
2021/07/22 10:41:52;;;;;;;7.83;3.83;;;;;;;33.87;35.86;100054.10;1947334;73;21031;-62
2021/07/22 10:44:31;;;;;;;4.30;2.77;;;;;;;33.44;37.12;100058.04;1962927;73;21020;-62
2021/07/22 10:47:02;;;;;;;8.28;3.98;;;;;;;33.32;37.56;100055.75;1962290;73;21489;-62
2021/07/22 10:49:42;;;;;;;8.48;3.47;;;;;;;33.41;38.13;100053.03;1962877;73;20999;-62
2021/07/22 10:52:14;;;;;;;4.97;3.00;;;;;;;33.20;36.97;100056.19;1962894;73;21121;-62
2021/07/22 10:54:44;;;;;;;;;;;;;;;32.95;37.21;100046.12;1965939;73;21022;-61
2021/07/22 10:57:36;;;;;;;5.97;2.80;;;;;;;33.02;38.29;100044.71;1962936;73;20111;-63
2021/07/22 11:00:07;;;;;;;5.78;2.90;;;;;;;33.09;37.92;100049.03;1963063;73;21042;-63
2021/07/22 11:02:40;;;;;;;4.97;2.58;;;;;;;32.98;37.23;100044.32;1962905;73;21410;-63
2021/07/22 11:05:14;;;;;;;8.93;2.25;;;;;;;32.96;36.49;100047.80;1962897;73;21117;-62
2021/07/22 11:07:45;;;;;;;15.18;3.52;;;;;;;32.55;37.69;100025.16;1936025;73;21449;-62
2021/07/22 11:10:14;;;;;;;10.50;2.83;;;;;;;32.33;37.57;100054.12;1957567;73;21453;-62
2021/07/22 11:12:44;;;;;;;5.90;2.92;;;;;;;32.14;38.20;100016.44;1962803;73;21034;-62
2021/07/22 11:15:32;;;;;;;9.25;3.37;;;;;;;31.73;39.10;100041.64;1962956;73;21023;-61
2021/07/22 11:18:01;;;;;;;10.90;3.27;;;;;;;31.58;39.32;100037.50;1962750;73;21003;-63
2021/07/22 11:20:34;;;;;;;10.50;2.95;;;;;;;31.49;40.08;100032.31;1962879;73;20991;-62
2021/07/22 11:23:15;;;;;;;10.10;3.10;;;;;;;31.43;40.03;100040.45;1954558;73;21063;-62
2021/07/22 11:25:45;;;;;;;11.75;3.72;;;;;;;31.39;39.74;100038.69;1947333;74;21040;-62
2021/07/22 11:28:16;;;;;;;7.05;2.85;;;;;;;31.22;39.90;100044.28;1947419;74;21035;-62
2021/07/22 11:31:05;;;;;;;9.03;2.77;;;;;;;31.01;40.30;100031.79;1947229;73;21078;-62
2021/07/22 11:33:39;;;;;;;6.78;2.72;;;;;;;30.98;40.21;100035.21;1947282;74;21145;-62
2021/07/22 11:36:10;;;;;;;6.55;3.05;;;;;;;30.75;40.45;100052.47;1947394;74;21027;-62
2021/07/22 11:38:39;;;;;;;5.87;2.42;;;;;;;30.64;41.33;100030.83;1947269;74;21039;-62
2021/07/22 11:41:13;;;;;;;8.63;3.10;;;;;;;30.74;41.46;100029.87;1947389;74;21446;-62
2021/07/22 11:43:48;;;;;;;10.95;3.15;;;;;;;30.70;41.63;100027.27;1947278;74;21520;-63
2021/07/22 11:46:18;;;;;;;5.53;2.67;;;;;;;30.63;41.95;100035.94;1941638;73;21319;-62
2021/07/22 11:48:47;;;;;;;4.60;3.00;;;;;;;30.68;41.88;100051.63;1947296;74;21563;-62
2021/07/22 11:51:16;;;;;;;12.18;3.05;;;;;;;30.71;41.90;100039.82;1947217;74;21008;-64
2021/07/22 11:53:45;;;;;;;12.30;3.62;;;;;;;30.56;42.62;100012.86;1947278;74;21540;-62
2021/07/22 11:56:16;;;;;;;9.90;3.25;;;;;;;30.49;44.63;99998.44;1947406;74;21109;-62
2021/07/22 11:58:50;;;;;;;10.93;3.52;;;;;;;30.50;44.81;100025.90;1946458;74;21481;-62
2021/07/22 12:01:19;;;;;;;10.10;3.75;;;;;;;30.49;45.56;100035.11;1947401;74;21031;-62